Mister T — WDC2491 — position and weather

sailwx.info

Track history (hours):
 
Tides and Currents Weather Stations Pressure Air Temp Water Temp Dewpoint Dewpoint Depression Visibility Wind Speed Wind Dir Waves Ship Positions

Mister T

Owner: Buchanan Marine LP, New Haven, CT. More information available from US FCC via Universal Licensing System and Coast Guard Vessel Documentation Center.

Last reported at 2017-Dec-11 11:00 UTC. Time now 2017-Dec-11 11:25 UTC.
Position N 40°48' W 073°51'.

Length 25 m; draft 3.6 m.

Type: Towing. MMSI: 366993880.

Date/timePositionNaut miles runAvg speedWind from/ knotsBaromVisibWave heightAir tempDewpointWater temp
2017-Dec-11 11:00N 40°48' W 073°51'2 1.6
2017-Dec-11 09:48N 40°49' W 073°53'0 1.3
2017-Dec-11 09:31N 40°49' W 073°53'2 3.3
2017-Dec-11 09:00N 40°48' W 073°51'0 0.0
2017-Dec-11 08:30N 40°48' W 073°51'0 0.0
2017-Dec-11 08:00N 40°48' W 073°51'0 0.0
2017-Dec-11 07:31N 40°48' W 073°51'0 0.0
2017-Dec-11 07:00N 40°48' W 073°51'2 3.3
2017-Dec-11 06:30N 40°48' W 073°48'1 2.5
2017-Dec-11 06:00N 40°49' W 073°47'3 0.6
2017-Dec-11 00:54N 40°52' W 073°45'2 4.0
2017-Dec-11 00:29N 40°50' W 073°46'2 3.4
2017-Dec-10 23:55N 40°48' W 073°47'1 2.5
2017-Dec-10 23:30N 40°48' W 073°48'1 1.2
2017-Dec-10 22:58N 40°48' W 073°49'1 2.6
2017-Dec-10 22:30N 40°48' W 073°51'1 3.0
2017-Dec-10 22:00N 40°48' W 073°49'0 0.4
2017-Dec-10 21:29N 40°49' W 073°49'0 0.6
2017-Dec-10 21:00N 40°48' W 073°49'2 4.5
2017-Dec-10 20:30N 40°48' W 073°52'2 5.0
2017-Dec-10 20:00N 40°47' W 073°55'3 6.0
2017-Dec-10 19:31N 40°45' W 073°58'3 5.9
2017-Dec-10 19:01N 40°42' W 073°59'3 5.8
2017-Dec-10 18:30N 40°41' W 074°02'0 1.0
2017-Dec-10 18:01N 40°40' W 074°03'2 4.3
2017-Dec-10 17:31N 40°40' W 073°60'2 4.7
2017-Dec-10 17:01N 40°40' W 074°03'1 1.9
2017-Dec-10 16:31N 40°41' W 074°02'2 4.7
2017-Dec-10 16:00N 40°43' W 074°01'3 5.6
2017-Dec-10 15:30N 40°46' W 074°00'3 6.0
2017-Dec-10 15:00N 40°49' W 073°58'3 6.1
2017-Dec-10 14:29N 40°52' W 073°57'3 6.0
2017-Dec-10 14:00N 40°54' W 073°55'5 0.6
2017-Dec-10 06:02N 40°59' W 073°54'2 5.8
2017-Dec-10 05:41N 40°57' W 073°54'1 5.4
2017-Dec-10 05:27N 40°56' W 073°55'2 5.1
2017-Dec-10 05:00N 40°53' W 073°56'2 4.9
2017-Dec-10 04:30N 40°51' W 073°57'2 4.4
2017-Dec-10 04:00N 40°49' W 073°58'2 3.7
2017-Dec-10 03:30N 40°48' W 073°59'2 3.5
2017-Dec-10 03:00N 40°46' W 074°00'2 3.1
2017-Dec-10 02:30N 40°45' W 074°01'1 2.7
2017-Dec-10 02:00N 40°43' W 074°01'1 2.4
2017-Dec-10 01:30N 40°42' W 074°02'1 2.5
2017-Dec-10 01:00N 40°41' W 074°02'1 1.7
2017-Dec-10 00:30N 40°40' W 074°03'2 3.2
2017-Dec-10 00:00N 40°40' W 074°01'0 0.5
2017-Dec-09 23:30N 40°40' W 074°01'2 3.3
2017-Dec-09 23:00N 40°40' W 074°03'3 6.8
2017-Dec-09 22:30N 40°42' W 073°60'4 8.6
2017-Dec-09 21:59N 40°46' W 073°57'3 6.8
2017-Dec-09 21:29N 40°48' W 073°53'2 5.1
2017-Dec-09 21:00N 40°48' W 073°49'2 3.3
2017-Dec-09 20:29N 40°49' W 073°47'1 0.8
2017-Dec-09 18:54N 40°50' W 073°48'2 1.4
2017-Dec-09 17:29N 40°48' W 073°49'3 6.1
2017-Dec-09 16:59N 40°46' W 073°51'0 0.1
2017-Dec-09 16:30N 40°46' W 073°51'2 4.1
2017-Dec-09 15:59N 40°48' W 073°51'1 3.0
2017-Dec-09 15:29N 40°48' W 073°49'2 5.0
2017-Dec-09 15:00N 40°47' W 073°52'2 2.9
2017-Dec-09 14:29N 40°46' W 073°50'1 1.3
2017-Dec-09 14:00N 40°46' W 073°51'2 4.1
2017-Dec-09 13:30N 40°48' W 073°51'2 3.3
2017-Dec-09 13:00N 40°49' W 073°49'1 1.2
2017-Dec-09 12:29N 40°48' W 073°50'2 4.6
2017-Dec-09 12:00N 40°47' W 073°51'1 2.3
2017-Dec-09 11:30N 40°46' W 073°50'0 0.0
2017-Dec-09 10:59N 40°46' W 073°50'2 3.5
2017-Dec-09 10:30N 40°47' W 073°52'2 4.2
2017-Dec-09 10:00N 40°48' W 073°49'2 3.5
2017-Dec-09 09:30N 40°50' W 073°48'0 0.0
2017-Dec-09 07:32N 40°50' W 073°48'1 8.7
2017-Dec-09 07:27N 40°49' W 073°47'1 2.8
2017-Dec-09 06:58N 40°48' W 073°49'3 5.7
2017-Dec-09 06:30N 40°48' W 073°52'3 6.2
2017-Dec-09 05:59N 40°47' W 073°56'3 6.9
2017-Dec-09 05:30N 40°44' W 073°58'4 7.2
2017-Dec-09 05:00N 40°41' W 074°01'2 3.0
2017-Dec-09 04:30N 40°40' W 074°03'1 1.2
2017-Dec-09 04:00N 40°40' W 074°03'1 1.5
2017-Dec-09 03:30N 40°39' W 074°04'2 4.8
2017-Dec-09 03:00N 40°39' W 074°07'2 4.6
2017-Dec-09 02:30N 40°39' W 074°10'2 4.9
2017-Dec-09 02:00N 40°37' W 074°12'1 1.0
2017-Dec-09 01:27N 40°36' W 074°12'0 0.1
2017-Dec-09 00:49N 40°36' W 074°12'0 0.1
2017-Dec-09 00:25N 40°36' W 074°12'0 0.1
2017-Dec-08 23:57N 40°36' W 074°12'0 0.2
2017-Dec-08 22:49N 40°36' W 074°12'1 2.1
2017-Dec-08 22:29N 40°37' W 074°12'2 3.4
2017-Dec-08 22:00N 40°38' W 074°12'2 4.8
2017-Dec-08 21:30N 40°39' W 074°09'2 4.0
2017-Dec-08 21:00N 40°39' W 074°06'2 4.1
2017-Dec-08 20:30N 40°40' W 074°04'1 2.6
2017-Dec-08 20:00N 40°40' W 074°02'1 1.6
2017-Dec-08 19:30N 40°40' W 074°01'1 2.6
2017-Dec-08 19:00N 40°41' W 074°00'2 4.5
2017-Dec-08 18:30N 40°40' W 074°03'0 1.0
2017-Dec-08 18:00N 40°40' W 074°03'0 0.1
2017-Dec-08 17:30N 40°40' W 074°03'1 1.2
2017-Dec-08 17:00N 40°40' W 074°03'1 1.2
2017-Dec-08 16:30N 40°40' W 074°03'2 3.7
2017-Dec-08 16:00N 40°41' W 074°01'0 1.0
2017-Dec-08 15:30N 40°40' W 074°01'1 1.4
2017-Dec-08 15:00N 40°40' W 074°01'2 4.2
2017-Dec-08 14:30N 40°40' W 074°03'2 3.4
2017-Dec-08 14:00N 40°40' W 074°01'1 2.1
2017-Dec-08 13:30N 40°40' W 073°60'2 3.2
2017-Dec-08 13:00N 40°40' W 074°02'1 1.7
2017-Dec-08 12:30N 40°40' W 074°03'0 1.0
2017-Dec-08 12:00N 40°40' W 074°03'2 4.4
2017-Dec-08 11:30N 40°40' W 074°00'1 1.3
2017-Dec-08 11:00N 40°40' W 074°01'2 3.3
2017-Dec-08 10:30N 40°40' W 074°03'3 5.8
2017-Dec-08 10:01N 40°42' W 074°00'4 8.3
2017-Dec-08 09:30N 40°45' W 073°58'4 8.5
2017-Dec-08 09:00N 40°48' W 073°53'3 6.0
2017-Dec-08 08:30N 40°48' W 073°49'2 3.6
2017-Dec-08 08:00N 40°48' W 073°52'1 0.7
2017-Dec-08 06:46N 40°49' W 073°52'2 7.6
2017-Dec-08 06:30N 40°47' W 073°52'1 2.5
2017-Dec-08 05:57N 40°46' W 073°50'2 3.6
2017-Dec-08 05:30N 40°47' W 073°52'1 1.9
2017-Dec-08 05:00N 40°48' W 073°51'1 2.9
2017-Dec-08 04:29N 40°48' W 073°49'3 5.5
2017-Dec-08 04:00N 40°46' W 073°51'1 1.2
2017-Dec-08 03:29N 40°46' W 073°50'2 3.9
2017-Dec-08 03:00N 40°47' W 073°52'1 2.5
2017-Dec-08 02:30N 40°48' W 073°51'2 3.5
2017-Dec-08 01:58N 40°48' W 073°48'2 4.0
2017-Dec-08 01:29N 40°50' W 073°47'3 0.9
2017-Dec-07 21:51N 40°52' W 073°44'3 5.8
2017-Dec-07 21:25N 40°50' W 073°46'2 5.1
2017-Dec-07 20:59N 40°48' W 073°47'1 2.2
2017-Dec-07 20:22N 40°48' W 073°49'0 1.0
2017-Dec-07 19:59N 40°48' W 073°49'2 0.6
2017-Dec-07 17:04N 40°49' W 073°47'0 5.5
2017-Dec-07 17:00N 40°49' W 073°47'1 2.3
2017-Dec-07 16:28N 40°49' W 073°49'0 0.0
2017-Dec-07 15:57N 40°49' W 073°49'0 0.9
2017-Dec-07 15:29N 40°48' W 073°49'3 5.5
2017-Dec-07 15:00N 40°46' W 073°51'1 1.0
2017-Dec-07 14:27N 40°46' W 073°50'2 3.8
2017-Dec-07 13:58N 40°48' W 073°52'2 3.8
2017-Dec-07 13:29N 40°48' W 073°49'0 0.3
2017-Dec-07 12:59N 40°48' W 073°49'0 0.0
2017-Dec-07 12:30N 40°48' W 073°49'0 0.0
2017-Dec-07 12:00N 40°48' W 073°49'0 0.0
2017-Dec-07 11:30N 40°48' W 073°49'0 0.0
2017-Dec-07 10:57N 40°48' W 073°49'0 0.0
2017-Dec-07 10:30N 40°48' W 073°49'2 3.1
2017-Dec-07 10:00N 40°48' W 073°51'2 3.9
2017-Dec-07 09:26N 40°46' W 073°50'0 0.3
2017-Dec-07 08:57N 40°46' W 073°50'2 3.8
2017-Dec-07 08:30N 40°47' W 073°52'3 4.9
2017-Dec-07 07:59N 40°49' W 073°49'1 2.4
2017-Dec-07 07:29N 40°48' W 073°47'4 6.0
2017-Dec-07 06:51N 40°52' W 073°49'0 0.0
2017-Dec-07 05:15N 40°52' W 073°49'1 2.4
2017-Dec-07 04:59N 40°51' W 073°49'3 5.6
2017-Dec-07 04:27N 40°48' W 073°47'1 1.8
2017-Dec-07 03:49N 40°48' W 073°49'0 0.0
2017-Dec-07 03:30N 40°48' W 073°49'0 1.0
2017-Dec-07 03:00N 40°48' W 073°49'3 5.1
2017-Dec-07 02:30N 40°46' W 073°51'1 1.2
2017-Dec-07 02:00N 40°46' W 073°50'2 4.2
2017-Dec-07 01:29N 40°48' W 073°50'1 2.7
2017-Dec-07 00:58N 40°49' W 073°49'2 4.3
2017-Dec-07 00:30N 40°48' W 073°51'3 5.6
2017-Dec-06 23:59N 40°47' W 073°55'3 5.6
2017-Dec-06 23:30N 40°45' W 073°57'2 4.1
2017-Dec-06 23:00N 40°43' W 073°58'1 2.9
2017-Dec-06 22:30N 40°42' W 073°59'2 3.3
2017-Dec-06 22:01N 40°41' W 074°01'1 2.9
2017-Dec-06 21:30N 40°40' W 074°02'1 1.9
2017-Dec-06 21:00N 40°40' W 074°03'  
2017-Dec-03 17:57N 40°51' W 073°45'2 4.1
2017-Dec-03 17:29N 40°50' W 073°46'2 3.5
2017-Dec-03 16:58N 40°48' W 073°47'1 2.5
2017-Dec-03 16:27N 40°49' W 073°49'0 0.3
2017-Dec-03 15:58N 40°49' W 073°49'0 0.9
2017-Dec-03 15:30N 40°48' W 073°49'0 0.2
2017-Dec-03 15:00N 40°48' W 073°49'2 3.4
2017-Dec-03 14:29N 40°49' W 073°48'1 0.7
2017-Dec-03 12:38N 40°51' W 073°48'1 5.6
2017-Dec-03 12:29N 40°50' W 073°48'2 3.1
2017-Dec-03 11:58N 40°48' W 073°48'0 1.0
2017-Dec-03 11:30N 40°49' W 073°49'0 0.0
2017-Dec-03 11:00N 40°49' W 073°49'0 0.0
2017-Dec-03 10:30N 40°49' W 073°49'0 0.0
2017-Dec-03 10:00N 40°49' W 073°49'0 0.3
2017-Dec-03 09:30N 40°48' W 073°49'3 5.9
2017-Dec-03 08:59N 40°48' W 073°53'2 4.9
2017-Dec-03 08:29N 40°47' W 073°56'2 4.3
2017-Dec-03 08:00N 40°45' W 073°58'2 3.9
2017-Dec-03 07:30N 40°43' W 073°58'1 2.8
2017-Dec-03 07:00N 40°42' W 073°60'2 3.4
2017-Dec-03 06:30N 40°41' W 074°01'1 2.9
2017-Dec-03 06:00N 40°40' W 074°03'1 1.7
2017-Dec-03 05:30N 40°40' W 074°03'0 0.0
2017-Dec-03 05:00N 40°40' W 074°03'0 0.0
2017-Dec-03 04:30N 40°40' W 074°03'0 0.0
2017-Dec-03 04:00N 40°40' W 074°03'0 0.4
2017-Dec-03 03:30N 40°40' W 074°03'0 0.4
2017-Dec-03 03:00N 40°40' W 074°03'2 4.8
2017-Dec-03 02:30N 40°40' W 074°00'0 0.5
2017-Dec-03 02:00N 40°40' W 074°01'1 2.7
2017-Dec-03 01:30N 40°41' W 074°01'1 2.1
2017-Dec-03 01:00N 40°40' W 074°01'2 3.4
2017-Dec-03 00:30N 40°40' W 074°03'3 6.5
2017-Dec-03 00:00N 40°39' W 074°07'4 7.7
2017-Dec-02 23:30N 40°38' W 074°12'1 2.1
2017-Dec-02 22:53N 40°36' W 074°12'1 2.3
2017-Dec-02 22:30N 40°37' W 074°12'2 3.9
2017-Dec-02 21:59N 40°39' W 074°11'3 5.3
2017-Dec-02 21:30N 40°39' W 074°07'3 5.7
2017-Dec-02 21:00N 40°40' W 074°04'1 2.1
2017-Dec-02 20:30N 40°40' W 074°03'3 5.3
2017-Dec-02 20:00N 40°39' W 074°06'3 5.8
2017-Dec-02 19:30N 40°39' W 074°10'3 5.6
2017-Dec-02 19:00N 40°37' W 074°12'0 0.8
2017-Dec-02 18:22N 40°36' W 074°12'0 0.5
2017-Dec-02 17:52N 40°36' W 074°12'1 3.1
2017-Dec-02 17:30N 40°37' W 074°12'2 4.7
2017-Dec-02 17:00N 40°39' W 074°10'2 3.9
2017-Dec-02 16:30N 40°39' W 074°08'2 3.3
2017-Dec-02 16:00N 40°39' W 074°05'2 3.4
2017-Dec-02 15:30N 40°40' W 074°03'0 0.2
2017-Dec-02 15:00N 40°40' W 074°03'4 8.9
2017-Dec-02 14:30N 40°43' W 073°59'4 8.3
2017-Dec-02 14:00N 40°46' W 073°56'4 7.3
2017-Dec-02 13:30N 40°48' W 073°52'1 2.3
2017-Dec-02 12:56N 40°49' W 073°53'2 4.2
2017-Dec-02 12:30N 40°48' W 073°51'2 4.6
2017-Dec-02 11:59N 40°46' W 073°51'1 1.6
2017-Dec-02 11:30N 40°47' W 073°51'2 4.0
2017-Dec-02 11:00N 40°48' W 073°50'0 0.6
2017-Dec-02 10:26N 40°48' W 073°49'3 6.2
2017-Dec-02 10:00N 40°46' W 073°51'0 0.7
2017-Dec-02 09:30N 40°46' W 073°51'2 3.8
2017-Dec-02 08:59N 40°48' W 073°51'2 3.2
2017-Dec-02 08:30N 40°49' W 073°49'2 4.4
2017-Dec-02 08:00N 40°48' W 073°52'3 5.5
2017-Dec-02 07:30N 40°47' W 073°55'3 5.1
2017-Dec-02 07:00N 40°45' W 073°57'2 4.2
2017-Dec-02 06:30N 40°43' W 073°58'2 3.0
2017-Dec-02 06:00N 40°42' W 073°60'1 3.0
2017-Dec-02 05:30N 40°41' W 074°01'2 3.3
2017-Dec-02 05:00N 40°40' W 074°03'1 1.3
2017-Dec-02 04:30N 40°40' W 074°03'0 0.8
2017-Dec-02 04:00N 40°40' W 074°04'3 5.9
2017-Dec-02 03:30N 40°39' W 074°07'3 6.3
2017-Dec-02 03:00N 40°39' W 074°11'3 5.1
2017-Dec-02 02:29N 40°36' W 074°12'2 4.0
2017-Dec-02 02:00N 40°38' W 074°12'0 0.8
2017-Dec-02 01:30N 40°38' W 074°12'0 0.0
2017-Dec-02 01:00N 40°38' W 074°12'0 0.0
2017-Dec-02 00:29N 40°38' W 074°12'0 0.0
2017-Dec-02 00:00N 40°38' W 074°12'0 0.0
2017-Dec-01 23:29N 40°38' W 074°12'0 0.0
2017-Dec-01 23:00N 40°38' W 074°12'3 6.0
2017-Dec-01 22:30N 40°39' W 074°08'4 7.3
2017-Dec-01 22:00N 40°40' W 074°03'0 0.0
2017-Dec-01 21:30N 40°40' W 074°03'0 0.1
2017-Dec-01 21:00N 40°40' W 074°03'0 0.1
2017-Dec-01 20:30N 40°40' W 074°03'0 0.0
2017-Dec-01 20:00N 40°40' W 074°03'1 2.1
2017-Dec-01 19:30N 40°40' W 074°02'0 0.6
2017-Dec-01 19:00N 40°40' W 074°02'1 1.5
2017-Dec-01 18:30N 40°40' W 074°03'0 0.1
2017-Dec-01 18:00N 40°40' W 074°03'0 0.9
2017-Dec-01 17:30N 40°40' W 074°03'2 4.9
2017-Dec-01 17:00N 40°41' W 074°00'3 5.5
2017-Dec-01 16:30N 40°40' W 074°03'3 6.5
2017-Dec-01 16:00N 40°42' W 074°00'5 9.6
2017-Dec-01 15:30N 40°46' W 073°57'4 7.6
2017-Dec-01 14:59N 40°48' W 073°52'2 5.1
2017-Dec-01 14:30N 40°46' W 073°50'1 1.9
2017-Dec-01 13:58N 40°46' W 073°51'2 4.3
2017-Dec-01 13:29N 40°48' W 073°50'2 3.4
2017-Dec-01 12:54N 40°48' W 073°47'4 2.3
2017-Dec-01 11:16N 40°52' W 073°49'  
Track history (hours):
 
Tides and Currents Weather Stations Pressure Air Temp Water Temp Dewpoint Dewpoint Depression Visibility Wind Speed Wind Dir Waves Ship Positions

Mister T

Owner: Buchanan Marine LP, New Haven, CT. More information available from US FCC via Universal Licensing System and Coast Guard Vessel Documentation Center.

Last reported at 2017-Dec-11 11:00 UTC. Time now 2017-Dec-11 11:25 UTC.
Position N 40°48' W 073°51'.

Length 25 m; draft 3.6 m.

Type: Towing. MMSI: 366993880.

Date/timePositionNaut miles runAvg speedWind from/ knotsBaromVisibWave heightAir tempDewpointWater temp
2017-Dec-11 11:00N 40°48' W 073°51'2 1.6
2017-Dec-11 09:48N 40°49' W 073°53'0 1.3
2017-Dec-11 09:31N 40°49' W 073°53'2 3.3
2017-Dec-11 09:00N 40°48' W 073°51'0 0.0
2017-Dec-11 08:30N 40°48' W 073°51'0 0.0
2017-Dec-11 08:00N 40°48' W 073°51'0 0.0
2017-Dec-11 07:31N 40°48' W 073°51'0 0.0
2017-Dec-11 07:00N 40°48' W 073°51'2 3.3
2017-Dec-11 06:30N 40°48' W 073°48'1 2.5
2017-Dec-11 06:00N 40°49' W 073°47'3 0.6
2017-Dec-11 00:54N 40°52' W 073°45'2 4.0
2017-Dec-11 00:29N 40°50' W 073°46'2 3.4
2017-Dec-10 23:55N 40°48' W 073°47'1 2.5
2017-Dec-10 23:30N 40°48' W 073°48'1 1.2
2017-Dec-10 22:58N 40°48' W 073°49'1 2.6
2017-Dec-10 22:30N 40°48' W 073°51'1 3.0
2017-Dec-10 22:00N 40°48' W 073°49'0 0.4
2017-Dec-10 21:29N 40°49' W 073°49'0 0.6
2017-Dec-10 21:00N 40°48' W 073°49'2 4.5
2017-Dec-10 20:30N 40°48' W 073°52'2 5.0
2017-Dec-10 20:00N 40°47' W 073°55'3 6.0
2017-Dec-10 19:31N 40°45' W 073°58'3 5.9
2017-Dec-10 19:01N 40°42' W 073°59'3 5.8
2017-Dec-10 18:30N 40°41' W 074°02'0 1.0
2017-Dec-10 18:01N 40°40' W 074°03'2 4.3
2017-Dec-10 17:31N 40°40' W 073°60'2 4.7
2017-Dec-10 17:01N 40°40' W 074°03'1 1.9
2017-Dec-10 16:31N 40°41' W 074°02'2 4.7
2017-Dec-10 16:00N 40°43' W 074°01'3 5.6
2017-Dec-10 15:30N 40°46' W 074°00'3 6.0
2017-Dec-10 15:00N 40°49' W 073°58'3 6.1
2017-Dec-10 14:29N 40°52' W 073°57'3 6.0
2017-Dec-10 14:00N 40°54' W 073°55'5 0.6
2017-Dec-10 06:02N 40°59' W 073°54'2 5.8
2017-Dec-10 05:41N 40°57' W 073°54'1 5.4
2017-Dec-10 05:27N 40°56' W 073°55'2 5.1
2017-Dec-10 05:00N 40°53' W 073°56'2 4.9
2017-Dec-10 04:30N 40°51' W 073°57'2 4.4
2017-Dec-10 04:00N 40°49' W 073°58'2 3.7
2017-Dec-10 03:30N 40°48' W 073°59'2 3.5
2017-Dec-10 03:00N 40°46' W 074°00'2 3.1
2017-Dec-10 02:30N 40°45' W 074°01'1 2.7
2017-Dec-10 02:00N 40°43' W 074°01'1 2.4
2017-Dec-10 01:30N 40°42' W 074°02'1 2.5
2017-Dec-10 01:00N 40°41' W 074°02'1 1.7
2017-Dec-10 00:30N 40°40' W 074°03'2 3.2
2017-Dec-10 00:00N 40°40' W 074°01'0 0.5
2017-Dec-09 23:30N 40°40' W 074°01'2 3.3
2017-Dec-09 23:00N 40°40' W 074°03'3 6.8
2017-Dec-09 22:30N 40°42' W 073°60'4 8.6
2017-Dec-09 21:59N 40°46' W 073°57'3 6.8
2017-Dec-09 21:29N 40°48' W 073°53'2 5.1
2017-Dec-09 21:00N 40°48' W 073°49'2 3.3
2017-Dec-09 20:29N 40°49' W 073°47'1 0.8
2017-Dec-09 18:54N 40°50' W 073°48'2 1.4
2017-Dec-09 17:29N 40°48' W 073°49'3 6.1
2017-Dec-09 16:59N 40°46' W 073°51'0 0.1
2017-Dec-09 16:30N 40°46' W 073°51'2 4.1
2017-Dec-09 15:59N 40°48' W 073°51'1 3.0
2017-Dec-09 15:29N 40°48' W 073°49'2 5.0
2017-Dec-09 15:00N 40°47' W 073°52'2 2.9
2017-Dec-09 14:29N 40°46' W 073°50'1 1.3
2017-Dec-09 14:00N 40°46' W 073°51'2 4.1
2017-Dec-09 13:30N 40°48' W 073°51'2 3.3
2017-Dec-09 13:00N 40°49' W 073°49'1 1.2
2017-Dec-09 12:29N 40°48' W 073°50'2 4.6
2017-Dec-09 12:00N 40°47' W 073°51'1 2.3
2017-Dec-09 11:30N 40°46' W 073°50'0 0.0
2017-Dec-09 10:59N 40°46' W 073°50'2 3.5
2017-Dec-09 10:30N 40°47' W 073°52'2 4.2
2017-Dec-09 10:00N 40°48' W 073°49'2 3.5
2017-Dec-09 09:30N 40°50' W 073°48'0 0.0
2017-Dec-09 07:32N 40°50' W 073°48'1 8.7
2017-Dec-09 07:27N 40°49' W 073°47'1 2.8
2017-Dec-09 06:58N 40°48' W 073°49'3 5.7
2017-Dec-09 06:30N 40°48' W 073°52'3 6.2
2017-Dec-09 05:59N 40°47' W 073°56'3 6.9
2017-Dec-09 05:30N 40°44' W 073°58'4 7.2
2017-Dec-09 05:00N 40°41' W 074°01'2 3.0
2017-Dec-09 04:30N 40°40' W 074°03'1 1.2
2017-Dec-09 04:00N 40°40' W 074°03'1 1.5
2017-Dec-09 03:30N 40°39' W 074°04'2 4.8
2017-Dec-09 03:00N 40°39' W 074°07'2 4.6
2017-Dec-09 02:30N 40°39' W 074°10'2 4.9
2017-Dec-09 02:00N 40°37' W 074°12'1 1.0
2017-Dec-09 01:27N 40°36' W 074°12'0 0.1
2017-Dec-09 00:49N 40°36' W 074°12'0 0.1
2017-Dec-09 00:25N 40°36' W 074°12'0 0.1
2017-Dec-08 23:57N 40°36' W 074°12'0 0.2
2017-Dec-08 22:49N 40°36' W 074°12'1 2.1
2017-Dec-08 22:29N 40°37' W 074°12'2 3.4
2017-Dec-08 22:00N 40°38' W 074°12'2 4.8
2017-Dec-08 21:30N 40°39' W 074°09'2 4.0
2017-Dec-08 21:00N 40°39' W 074°06'2 4.1
2017-Dec-08 20:30N 40°40' W 074°04'1 2.6
2017-Dec-08 20:00N 40°40' W 074°02'1 1.6
2017-Dec-08 19:30N 40°40' W 074°01'1 2.6
2017-Dec-08 19:00N 40°41' W 074°00'2 4.5
2017-Dec-08 18:30N 40°40' W 074°03'0 1.0
2017-Dec-08 18:00N 40°40' W 074°03'0 0.1
2017-Dec-08 17:30N 40°40' W 074°03'1 1.2
2017-Dec-08 17:00N 40°40' W 074°03'1 1.2
2017-Dec-08 16:30N 40°40' W 074°03'2 3.7
2017-Dec-08 16:00N 40°41' W 074°01'0 1.0
2017-Dec-08 15:30N 40°40' W 074°01'1 1.4
2017-Dec-08 15:00N 40°40' W 074°01'2 4.2
2017-Dec-08 14:30N 40°40' W 074°03'2 3.4
2017-Dec-08 14:00N 40°40' W 074°01'1 2.1
2017-Dec-08 13:30N 40°40' W 073°60'2 3.2
2017-Dec-08 13:00N 40°40' W 074°02'1 1.7
2017-Dec-08 12:30N 40°40' W 074°03'0 1.0
2017-Dec-08 12:00N 40°40' W 074°03'2 4.4
2017-Dec-08 11:30N 40°40' W 074°00'1 1.3
2017-Dec-08 11:00N 40°40' W 074°01'2 3.3
2017-Dec-08 10:30N 40°40' W 074°03'3 5.8
2017-Dec-08 10:01N 40°42' W 074°00'4 8.3
2017-Dec-08 09:30N 40°45' W 073°58'4 8.5
2017-Dec-08 09:00N 40°48' W 073°53'3 6.0
2017-Dec-08 08:30N 40°48' W 073°49'2 3.6
2017-Dec-08 08:00N 40°48' W 073°52'1 0.7
2017-Dec-08 06:46N 40°49' W 073°52'2 7.6
2017-Dec-08 06:30N 40°47' W 073°52'1 2.5
2017-Dec-08 05:57N 40°46' W 073°50'2 3.6
2017-Dec-08 05:30N 40°47' W 073°52'1 1.9
2017-Dec-08 05:00N 40°48' W 073°51'1 2.9
2017-Dec-08 04:29N 40°48' W 073°49'3 5.5
2017-Dec-08 04:00N 40°46' W 073°51'1 1.2
2017-Dec-08 03:29N 40°46' W 073°50'2 3.9
2017-Dec-08 03:00N 40°47' W 073°52'1 2.5
2017-Dec-08 02:30N 40°48' W 073°51'2 3.5
2017-Dec-08 01:58N 40°48' W 073°48'2 4.0
2017-Dec-08 01:29N 40°50' W 073°47'3 0.9
2017-Dec-07 21:51N 40°52' W 073°44'3 5.8
2017-Dec-07 21:25N 40°50' W 073°46'2 5.1
2017-Dec-07 20:59N 40°48' W 073°47'1 2.2
2017-Dec-07 20:22N 40°48' W 073°49'0 1.0
2017-Dec-07 19:59N 40°48' W 073°49'2 0.6
2017-Dec-07 17:04N 40°49' W 073°47'0 5.5
2017-Dec-07 17:00N 40°49' W 073°47'1 2.3
2017-Dec-07 16:28N 40°49' W 073°49'0 0.0
2017-Dec-07 15:57N 40°49' W 073°49'0 0.9
2017-Dec-07 15:29N 40°48' W 073°49'3 5.5
2017-Dec-07 15:00N 40°46' W 073°51'1 1.0
2017-Dec-07 14:27N 40°46' W 073°50'2 3.8
2017-Dec-07 13:58N 40°48' W 073°52'2 3.8
2017-Dec-07 13:29N 40°48' W 073°49'0 0.3
2017-Dec-07 12:59N 40°48' W 073°49'0 0.0
2017-Dec-07 12:30N 40°48' W 073°49'0 0.0
2017-Dec-07 12:00N 40°48' W 073°49'0 0.0
2017-Dec-07 11:30N 40°48' W 073°49'0 0.0
2017-Dec-07 10:57N 40°48' W 073°49'0 0.0
2017-Dec-07 10:30N 40°48' W 073°49'2 3.1
2017-Dec-07 10:00N 40°48' W 073°51'2 3.9
2017-Dec-07 09:26N 40°46' W 073°50'0 0.3
2017-Dec-07 08:57N 40°46' W 073°50'2 3.8
2017-Dec-07 08:30N 40°47' W 073°52'3 4.9
2017-Dec-07 07:59N 40°49' W 073°49'1 2.4
2017-Dec-07 07:29N 40°48' W 073°47'4 6.0
2017-Dec-07 06:51N 40°52' W 073°49'0 0.0
2017-Dec-07 05:15N 40°52' W 073°49'1 2.4
2017-Dec-07 04:59N 40°51' W 073°49'3 5.6
2017-Dec-07 04:27N 40°48' W 073°47'1 1.8
2017-Dec-07 03:49N 40°48' W 073°49'0 0.0
2017-Dec-07 03:30N 40°48' W 073°49'0 1.0
2017-Dec-07 03:00N 40°48' W 073°49'3 5.1
2017-Dec-07 02:30N 40°46' W 073°51'1 1.2
2017-Dec-07 02:00N 40°46' W 073°50'2 4.2
2017-Dec-07 01:29N 40°48' W 073°50'1 2.7
2017-Dec-07 00:58N 40°49' W 073°49'2 4.3
2017-Dec-07 00:30N 40°48' W 073°51'3 5.6
2017-Dec-06 23:59N 40°47' W 073°55'3 5.6
2017-Dec-06 23:30N 40°45' W 073°57'2 4.1
2017-Dec-06 23:00N 40°43' W 073°58'1 2.9
2017-Dec-06 22:30N 40°42' W 073°59'2 3.3
2017-Dec-06 22:01N 40°41' W 074°01'1 2.9
2017-Dec-06 21:30N 40°40' W 074°02'1 1.9
2017-Dec-06 21:00N 40°40' W 074°03'  
2017-Dec-03 17:57N 40°51' W 073°45'2 4.1
2017-Dec-03 17:29N 40°50' W 073°46'2 3.5
2017-Dec-03 16:58N 40°48' W 073°47'1 2.5
2017-Dec-03 16:27N 40°49' W 073°49'0 0.3
2017-Dec-03 15:58N 40°49' W 073°49'0 0.9
2017-Dec-03 15:30N 40°48' W 073°49'0 0.2
2017-Dec-03 15:00N 40°48' W 073°49'2 3.4
2017-Dec-03 14:29N 40°49' W 073°48'1 0.7
2017-Dec-03 12:38N 40°51' W 073°48'1 5.6
2017-Dec-03 12:29N 40°50' W 073°48'2 3.1
2017-Dec-03 11:58N 40°48' W 073°48'0 1.0
2017-Dec-03 11:30N 40°49' W 073°49'0 0.0
2017-Dec-03 11:00N 40°49' W 073°49'0 0.0
2017-Dec-03 10:30N 40°49' W 073°49'0 0.0
2017-Dec-03 10:00N 40°49' W 073°49'0 0.3
2017-Dec-03 09:30N 40°48' W 073°49'3 5.9
2017-Dec-03 08:59N 40°48' W 073°53'2 4.9
2017-Dec-03 08:29N 40°47' W 073°56'2 4.3
2017-Dec-03 08:00N 40°45' W 073°58'2 3.9
2017-Dec-03 07:30N 40°43' W 073°58'1 2.8
2017-Dec-03 07:00N 40°42' W 073°60'2 3.4
2017-Dec-03 06:30N 40°41' W 074°01'1 2.9
2017-Dec-03 06:00N 40°40' W 074°03'1 1.7
2017-Dec-03 05:30N 40°40' W 074°03'0 0.0
2017-Dec-03 05:00N 40°40' W 074°03'0 0.0
2017-Dec-03 04:30N 40°40' W 074°03'0 0.0
2017-Dec-03 04:00N 40°40' W 074°03'0 0.4
2017-Dec-03 03:30N 40°40' W 074°03'0 0.4
2017-Dec-03 03:00N 40°40' W 074°03'2 4.8
2017-Dec-03 02:30N 40°40' W 074°00'0 0.5
2017-Dec-03 02:00N 40°40' W 074°01'1 2.7
2017-Dec-03 01:30N 40°41' W 074°01'1 2.1
2017-Dec-03 01:00N 40°40' W 074°01'2 3.4
2017-Dec-03 00:30N 40°40' W 074°03'3 6.5
2017-Dec-03 00:00N 40°39' W 074°07'4 7.7
2017-Dec-02 23:30N 40°38' W 074°12'1 2.1
2017-Dec-02 22:53N 40°36' W 074°12'1 2.3
2017-Dec-02 22:30N 40°37' W 074°12'2 3.9
2017-Dec-02 21:59N 40°39' W 074°11'3 5.3
2017-Dec-02 21:30N 40°39' W 074°07'3 5.7
2017-Dec-02 21:00N 40°40' W 074°04'1 2.1
2017-Dec-02 20:30N 40°40' W 074°03'3 5.3
2017-Dec-02 20:00N 40°39' W 074°06'3 5.8
2017-Dec-02 19:30N 40°39' W 074°10'3 5.6
2017-Dec-02 19:00N 40°37' W 074°12'0 0.8
2017-Dec-02 18:22N 40°36' W 074°12'0 0.5
2017-Dec-02 17:52N 40°36' W 074°12'1 3.1
2017-Dec-02 17:30N 40°37' W 074°12'2 4.7
2017-Dec-02 17:00N 40°39' W 074°10'2 3.9
2017-Dec-02 16:30N 40°39' W 074°08'2 3.3
2017-Dec-02 16:00N 40°39' W 074°05'2 3.4
2017-Dec-02 15:30N 40°40' W 074°03'0 0.2
2017-Dec-02 15:00N 40°40' W 074°03'4 8.9
2017-Dec-02 14:30N 40°43' W 073°59'4 8.3
2017-Dec-02 14:00N 40°46' W 073°56'4 7.3
2017-Dec-02 13:30N 40°48' W 073°52'1 2.3
2017-Dec-02 12:56N 40°49' W 073°53'2 4.2
2017-Dec-02 12:30N 40°48' W 073°51'2 4.6
2017-Dec-02 11:59N 40°46' W 073°51'1 1.6
2017-Dec-02 11:30N 40°47' W 073°51'2 4.0
2017-Dec-02 11:00N 40°48' W 073°50'0 0.6
2017-Dec-02 10:26N 40°48' W 073°49'3 6.2
2017-Dec-02 10:00N 40°46' W 073°51'0 0.7
2017-Dec-02 09:30N 40°46' W 073°51'2 3.8
2017-Dec-02 08:59N 40°48' W 073°51'2 3.2
2017-Dec-02 08:30N 40°49' W 073°49'2 4.4
2017-Dec-02 08:00N 40°48' W 073°52'3 5.5
2017-Dec-02 07:30N 40°47' W 073°55'3 5.1
2017-Dec-02 07:00N 40°45' W 073°57'2 4.2
2017-Dec-02 06:30N 40°43' W 073°58'2 3.0
2017-Dec-02 06:00N 40°42' W 073°60'1 3.0
2017-Dec-02 05:30N 40°41' W 074°01'2 3.3
2017-Dec-02 05:00N 40°40' W 074°03'1 1.3
2017-Dec-02 04:30N 40°40' W 074°03'0 0.8
2017-Dec-02 04:00N 40°40' W 074°04'3 5.9
2017-Dec-02 03:30N 40°39' W 074°07'3 6.3
2017-Dec-02 03:00N 40°39' W 074°11'3 5.1
2017-Dec-02 02:29N 40°36' W 074°12'2 4.0
2017-Dec-02 02:00N 40°38' W 074°12'0 0.8
2017-Dec-02 01:30N 40°38' W 074°12'0 0.0
2017-Dec-02 01:00N 40°38' W 074°12'0 0.0
2017-Dec-02 00:29N 40°38' W 074°12'0 0.0
2017-Dec-02 00:00N 40°38' W 074°12'0 0.0
2017-Dec-01 23:29N 40°38' W 074°12'0 0.0
2017-Dec-01 23:00N 40°38' W 074°12'3 6.0
2017-Dec-01 22:30N 40°39' W 074°08'4 7.3
2017-Dec-01 22:00N 40°40' W 074°03'0 0.0
2017-Dec-01 21:30N 40°40' W 074°03'0 0.1
2017-Dec-01 21:00N 40°40' W 074°03'0 0.1
2017-Dec-01 20:30N 40°40' W 074°03'0 0.0
2017-Dec-01 20:00N 40°40' W 074°03'1 2.1
2017-Dec-01 19:30N 40°40' W 074°02'0 0.6
2017-Dec-01 19:00N 40°40' W 074°02'1 1.5
2017-Dec-01 18:30N 40°40' W 074°03'0 0.1
2017-Dec-01 18:00N 40°40' W 074°03'0 0.9
2017-Dec-01 17:30N 40°40' W 074°03'2 4.9
2017-Dec-01 17:00N 40°41' W 074°00'3 5.5
2017-Dec-01 16:30N 40°40' W 074°03'3 6.5
2017-Dec-01 16:00N 40°42' W 074°00'5 9.6
2017-Dec-01 15:30N 40°46' W 073°57'4 7.6
2017-Dec-01 14:59N 40°48' W 073°52'2 5.1
2017-Dec-01 14:30N 40°46' W 073°50'1 1.9
2017-Dec-01 13:58N 40°46' W 073°51'2 4.3
2017-Dec-01 13:29N 40°48' W 073°50'2 3.4
2017-Dec-01 12:54N 40°48' W 073°47'4 2.3
2017-Dec-01 11:16N 40°52' W 073°49'  

Dump ship's entire track history